N6941J T67-KGLS
Flight info
| Callsign | N6941J |
|---|---|
| Flight time | N/A |
| Altitude | 9000 |
| Route | T67 TTT JASPA KGLS |
| Aircraft | P28A/L-GGRS/E |
Departure
| Time | N/A |
|---|---|
| Airport | T67 |
Arrival
| Time | 2026-05-07 02:58 |
|---|---|
| Airport | Scholes International At Galveston Airport (KGLS) |
| Time | Latitude | Longitude | Altitude | Speed | Heading |
|---|---|---|---|---|---|
| 2026-05-07 01:22 | 31.96913 | -96.82110 | 9007 ft | 119 kts | 160° |
| 2026-05-07 01:23 | 31.96215 | -96.81586 | 9007 ft | 119 kts | 160° |
| 2026-05-07 01:23 | 31.95517 | -96.81063 | 9006 ft | 119 kts | 160° |
| 2026-05-07 01:23 | 31.94818 | -96.80540 | 9005 ft | 119 kts | 160° |
| 2026-05-07 01:23 | 31.94119 | -96.80016 | 9005 ft | 119 kts | 160° |
| 2026-05-07 01:24 | 31.93420 | -96.79492 | 9005 ft | 119 kts | 160° |
| 2026-05-07 01:24 | 31.92722 | -96.78969 | 9004 ft | 119 kts | 160° |
| 2026-05-07 01:24 | 31.92032 | -96.78452 | 9005 ft | 119 kts | 160° |
| 2026-05-07 01:24 | 31.91333 | -96.77929 | 9005 ft | 119 kts | 161° |
| 2026-05-07 01:25 | 31.90628 | -96.77405 | 9007 ft | 120 kts | 160° |
| 2026-05-07 01:25 | 31.89921 | -96.76877 | 9002 ft | 120 kts | 160° |
| 2026-05-07 01:25 | 31.89214 | -96.76348 | 8984 ft | 120 kts | 160° |
| 2026-05-07 01:25 | 31.88511 | -96.75820 | 8991 ft | 120 kts | 160° |
| 2026-05-07 01:26 | 31.87812 | -96.75293 | 8994 ft | 119 kts | 160° |
| 2026-05-07 01:26 | 31.87123 | -96.74775 | 8996 ft | 119 kts | 160° |
| 2026-05-07 01:26 | 31.86428 | -96.74254 | 8997 ft | 119 kts | 160° |
| 2026-05-07 01:26 | 31.85733 | -96.73732 | 9000 ft | 119 kts | 160° |
| 2026-05-07 01:27 | 31.85036 | -96.73210 | 9001 ft | 119 kts | 160° |
| 2026-05-07 01:27 | 31.84335 | -96.72688 | 9004 ft | 120 kts | 160° |
| 2026-05-07 01:27 | 31.83629 | -96.72164 | 9005 ft | 120 kts | 160° |
| 2026-05-07 01:27 | 31.82920 | -96.71636 | 9004 ft | 121 kts | 160° |
| 2026-05-07 01:28 | 31.82208 | -96.71106 | 9001 ft | 121 kts | 160° |
| 2026-05-07 01:28 | 31.81497 | -96.70578 | 8999 ft | 121 kts | 160° |
| 2026-05-07 01:28 | 31.80797 | -96.70054 | 8997 ft | 121 kts | 160° |
| 2026-05-07 01:28 | 31.80092 | -96.69523 | 8997 ft | 120 kts | 160° |
| 2026-05-07 01:29 | 31.79388 | -96.68996 | 8997 ft | 120 kts | 160° |
| 2026-05-07 01:29 | 31.78685 | -96.68470 | 8992 ft | 120 kts | 160° |
| 2026-05-07 01:29 | 31.77983 | -96.67946 | 8994 ft | 120 kts | 160° |
| 2026-05-07 01:29 | 31.77277 | -96.67420 | 8995 ft | 120 kts | 160° |
| 2026-05-07 01:30 | 31.76569 | -96.66894 | 8992 ft | 120 kts | 160° |
| 2026-05-07 01:30 | 31.75863 | -96.66368 | 8989 ft | 120 kts | 160° |
| 2026-05-07 01:30 | 31.75164 | -96.65845 | 8988 ft | 116 kts | 160° |
| 2026-05-07 01:30 | 31.74483 | -96.65330 | 8991 ft | 120 kts | 160° |
| 2026-05-07 01:31 | 31.73765 | -96.64801 | 8996 ft | 123 kts | 160° |
| 2026-05-07 01:31 | 31.73035 | -96.64266 | 8995 ft | 125 kts | 160° |
| 2026-05-07 01:31 | 31.72298 | -96.63723 | 8994 ft | 126 kts | 160° |
| 2026-05-07 01:31 | 31.71555 | -96.63172 | 8993 ft | 127 kts | 160° |
| 2026-05-07 01:32 | 31.70811 | -96.62618 | 8992 ft | 127 kts | 159° |
| 2026-05-07 01:32 | 31.70067 | -96.62063 | 8992 ft | 127 kts | 159° |
| 2026-05-07 01:32 | 31.69320 | -96.61507 | 8992 ft | 127 kts | 159° |
| 2026-05-07 01:32 | 31.68574 | -96.60949 | 8992 ft | 127 kts | 159° |
| 2026-05-07 01:33 | 31.67835 | -96.60397 | 8989 ft | 128 kts | 159° |
| 2026-05-07 01:33 | 31.67085 | -96.59837 | 8985 ft | 128 kts | 159° |
| 2026-05-07 01:33 | 31.66337 | -96.59279 | 8985 ft | 127 kts | 159° |
| 2026-05-07 01:33 | 31.65589 | -96.58722 | 8985 ft | 127 kts | 160° |
| 2026-05-07 01:34 | 31.64843 | -96.58166 | 8983 ft | 127 kts | 159° |
| 2026-05-07 01:34 | 31.64096 | -96.57611 | 8983 ft | 127 kts | 160° |
| 2026-05-07 01:34 | 31.63349 | -96.57056 | 8983 ft | 127 kts | 159° |
| 2026-05-07 01:34 | 31.62602 | -96.56501 | 8980 ft | 127 kts | 159° |
| 2026-05-07 01:35 | 31.61864 | -96.55953 | 8983 ft | 127 kts | 159° |
| 2026-05-07 01:35 | 31.61114 | -96.55396 | 8984 ft | 128 kts | 159° |
| 2026-05-07 01:35 | 31.60363 | -96.54838 | 8982 ft | 128 kts | 159° |
| 2026-05-07 01:35 | 31.59612 | -96.54280 | 8981 ft | 128 kts | 159° |
| 2026-05-07 01:36 | 31.58862 | -96.53723 | 8982 ft | 127 kts | 159° |
| 2026-05-07 01:36 | 31.58114 | -96.53167 | 8982 ft | 127 kts | 159° |
| 2026-05-07 01:36 | 31.57367 | -96.52612 | 8972 ft | 127 kts | 159° |
| 2026-05-07 01:36 | 31.56623 | -96.52057 | 8974 ft | 127 kts | 159° |
| 2026-05-07 01:37 | 31.55889 | -96.51513 | 8976 ft | 126 kts | 159° |
| 2026-05-07 01:37 | 31.55147 | -96.50962 | 8976 ft | 126 kts | 159° |
| 2026-05-07 01:37 | 31.54402 | -96.50410 | 8977 ft | 127 kts | 159° |
| 2026-05-07 01:37 | 31.53657 | -96.49858 | 8976 ft | 127 kts | 159° |
| 2026-05-07 01:38 | 31.52913 | -96.49306 | 8973 ft | 127 kts | 159° |
| 2026-05-07 01:38 | 31.52171 | -96.48756 | 8973 ft | 126 kts | 159° |
| 2026-05-07 01:38 | 31.51431 | -96.48206 | 8975 ft | 126 kts | 159° |
| 2026-05-07 01:38 | 31.50692 | -96.47659 | 8976 ft | 126 kts | 159° |
| 2026-05-07 01:39 | 31.49953 | -96.47110 | 8980 ft | 126 kts | 160° |
| 2026-05-07 01:39 | 31.49221 | -96.46570 | 8977 ft | 126 kts | 159° |
| 2026-05-07 01:39 | 31.48479 | -96.46020 | 8978 ft | 126 kts | 159° |
| 2026-05-07 01:39 | 31.47738 | -96.45471 | 8979 ft | 126 kts | 159° |
| 2026-05-07 01:40 | 31.47000 | -96.44924 | 8971 ft | 126 kts | 159° |
| 2026-05-07 01:40 | 31.46261 | -96.44376 | 8970 ft | 126 kts | 159° |
| 2026-05-07 01:40 | 31.45523 | -96.43829 | 8970 ft | 125 kts | 159° |
| 2026-05-07 01:40 | 31.44785 | -96.43283 | 8971 ft | 126 kts | 159° |
| 2026-05-07 01:41 | 31.44045 | -96.42737 | 8970 ft | 126 kts | 159° |
| 2026-05-07 01:41 | 31.43314 | -96.42196 | 8971 ft | 126 kts | 159° |
| 2026-05-07 01:41 | 31.42573 | -96.41648 | 8972 ft | 126 kts | 159° |
| 2026-05-07 01:41 | 31.41829 | -96.41099 | 8970 ft | 126 kts | 159° |
| 2026-05-07 01:42 | 31.41088 | -96.40549 | 8973 ft | 126 kts | 159° |
| 2026-05-07 01:42 | 31.40346 | -96.40001 | 8973 ft | 126 kts | 159° |
| 2026-05-07 01:42 | 31.39606 | -96.39454 | 8973 ft | 126 kts | 159° |
| 2026-05-07 01:42 | 31.38868 | -96.38907 | 8966 ft | 126 kts | 159° |
| 2026-05-07 01:43 | 31.38128 | -96.38360 | 8965 ft | 126 kts | 160° |
| 2026-05-07 01:43 | 31.37387 | -96.37813 | 8963 ft | 126 kts | 159° |
| 2026-05-07 01:43 | 31.36655 | -96.37273 | 8964 ft | 126 kts | 159° |
| 2026-05-07 01:43 | 31.35913 | -96.36726 | 8957 ft | 126 kts | 159° |
| 2026-05-07 01:44 | 31.35174 | -96.36180 | 8958 ft | 125 kts | 158° |
| 2026-05-07 01:44 | 31.34437 | -96.35636 | 8960 ft | 125 kts | 158° |
| 2026-05-07 01:44 | 31.33700 | -96.35091 | 8961 ft | 125 kts | 159° |
| 2026-05-07 01:44 | 31.32963 | -96.34547 | 8961 ft | 125 kts | 159° |
| 2026-05-07 01:45 | 31.32227 | -96.34004 | 8960 ft | 125 kts | 159° |
| 2026-05-07 01:45 | 31.31491 | -96.33461 | 8960 ft | 125 kts | 159° |
| 2026-05-07 01:45 | 31.30766 | -96.32927 | 8960 ft | 125 kts | 159° |
| 2026-05-07 01:45 | 31.30033 | -96.32386 | 8962 ft | 125 kts | 159° |
| 2026-05-07 01:46 | 31.29298 | -96.31844 | 8964 ft | 125 kts | 159° |
| 2026-05-07 01:46 | 31.28560 | -96.31302 | 8964 ft | 125 kts | 159° |
| 2026-05-07 01:46 | 31.27821 | -96.30758 | 8964 ft | 126 kts | 159° |
| 2026-05-07 01:46 | 31.27081 | -96.30213 | 8963 ft | 126 kts | 159° |
| 2026-05-07 01:47 | 31.26340 | -96.29668 | 8964 ft | 126 kts | 159° |
| 2026-05-07 01:47 | 31.25598 | -96.29121 | 8952 ft | 126 kts | 158° |
| 2026-05-07 01:47 | 31.24867 | -96.28582 | 8951 ft | 126 kts | 158° |
| 2026-05-07 01:47 | 31.24127 | -96.28036 | 8950 ft | 126 kts | 158° |
| 2026-05-07 01:48 | 31.23387 | -96.27492 | 8955 ft | 126 kts | 158° |
| 2026-05-07 01:48 | 31.22646 | -96.26946 | 8954 ft | 126 kts | 159° |
| 2026-05-07 01:48 | 31.21905 | -96.26400 | 8954 ft | 126 kts | 159° |
| 2026-05-07 01:48 | 31.21163 | -96.25854 | 8955 ft | 126 kts | 159° |
| 2026-05-07 01:49 | 31.20420 | -96.25308 | 8952 ft | 126 kts | 159° |
| 2026-05-07 01:49 | 31.19678 | -96.24763 | 8952 ft | 126 kts | 159° |
| 2026-05-07 01:49 | 31.18937 | -96.24217 | 8955 ft | 126 kts | 159° |
| 2026-05-07 01:49 | 31.18192 | -96.23670 | 8952 ft | 126 kts | 159° |
| 2026-05-07 01:50 | 31.17458 | -96.23131 | 8951 ft | 126 kts | 159° |
| 2026-05-07 01:50 | 31.16717 | -96.22583 | 8949 ft | 126 kts | 159° |
| 2026-05-07 01:50 | 31.15977 | -96.22040 | 8950 ft | 126 kts | 159° |
| 2026-05-07 01:50 | 31.15237 | -96.21496 | 8953 ft | 126 kts | 159° |
| 2026-05-07 01:51 | 31.14496 | -96.20954 | 8940 ft | 126 kts | 159° |
| 2026-05-07 01:51 | 31.13753 | -96.20408 | 8942 ft | 127 kts | 159° |
| 2026-05-07 01:51 | 31.13006 | -96.19861 | 8940 ft | 127 kts | 159° |
| 2026-05-07 01:51 | 31.12257 | -96.19314 | 8940 ft | 127 kts | 159° |
| 2026-05-07 01:52 | 31.11516 | -96.18770 | 8937 ft | 128 kts | 159° |
| 2026-05-07 01:52 | 31.10765 | -96.18218 | 8933 ft | 128 kts | 158° |
| 2026-05-07 01:52 | 31.10015 | -96.17667 | 8932 ft | 127 kts | 159° |
| 2026-05-07 01:52 | 31.09268 | -96.17118 | 8926 ft | 127 kts | 157° |
| 2026-05-07 01:53 | 31.08525 | -96.16573 | 8931 ft | 126 kts | 157° |
| 2026-05-07 01:53 | 31.07784 | -96.16028 | 8934 ft | 126 kts | 157° |
| 2026-05-07 01:53 | 31.07045 | -96.15485 | 8932 ft | 125 kts | 158° |
| 2026-05-07 01:53 | 31.06308 | -96.14945 | 8933 ft | 125 kts | 157° |
| 2026-05-07 01:54 | 31.05584 | -96.14413 | 8935 ft | 125 kts | 157° |
| 2026-05-07 01:54 | 31.04849 | -96.13876 | 8939 ft | 125 kts | 158° |
| 2026-05-07 01:54 | 31.04112 | -96.13338 | 8902 ft | 125 kts | 158° |
| 2026-05-07 01:54 | 31.03376 | -96.12799 | 8901 ft | 125 kts | 158° |
| 2026-05-07 01:55 | 31.02640 | -96.12259 | 8905 ft | 125 kts | 158° |
| 2026-05-07 01:55 | 31.01903 | -96.11720 | 8905 ft | 125 kts | 158° |
| 2026-05-07 01:55 | 31.01165 | -96.11180 | 8907 ft | 126 kts | 158° |
| 2026-05-07 01:55 | 31.00435 | -96.10647 | 8919 ft | 125 kts | 158° |
| 2026-05-07 01:56 | 30.99706 | -96.10110 | 8930 ft | 124 kts | 158° |
| 2026-05-07 01:56 | 30.98976 | -96.09576 | 8938 ft | 124 kts | 158° |
| 2026-05-07 01:56 | 30.98243 | -96.09040 | 8943 ft | 125 kts | 158° |
| 2026-05-07 01:56 | 30.97509 | -96.08504 | 8963 ft | 125 kts | 158° |
| 2026-05-07 01:57 | 30.96775 | -96.07970 | 8963 ft | 124 kts | 158° |
| 2026-05-07 01:57 | 30.96043 | -96.07435 | 8962 ft | 124 kts | 158° |
| 2026-05-07 01:57 | 30.95312 | -96.06900 | 8965 ft | 124 kts | 158° |
| 2026-05-07 01:57 | 30.94583 | -96.06368 | 8967 ft | 124 kts | 158° |
| 2026-05-07 01:58 | 30.93863 | -96.05842 | 8969 ft | 124 kts | 158° |
| 2026-05-07 01:58 | 30.93132 | -96.05310 | 8946 ft | 124 kts | 158° |
| 2026-05-07 01:58 | 30.92400 | -96.04774 | 8947 ft | 124 kts | 158° |
| 2026-05-07 01:58 | 30.91665 | -96.04239 | 8946 ft | 125 kts | 158° |
| 2026-05-07 01:59 | 30.90932 | -96.03703 | 8946 ft | 124 kts | 158° |
| 2026-05-07 01:59 | 30.90200 | -96.03168 | 8945 ft | 124 kts | 158° |
| 2026-05-07 01:59 | 30.89469 | -96.02634 | 8945 ft | 124 kts | 158° |
| 2026-05-07 01:59 | 30.88749 | -96.02109 | 8941 ft | 124 kts | 158° |
| 2026-05-07 02:00 | 30.88020 | -96.01576 | 8950 ft | 124 kts | 158° |
| 2026-05-07 02:00 | 30.87292 | -96.01044 | 8950 ft | 124 kts | 158° |
| 2026-05-07 02:00 | 30.86564 | -96.00514 | 8950 ft | 124 kts | 158° |
| 2026-05-07 02:00 | 30.85835 | -95.99982 | 8949 ft | 124 kts | 158° |
| 2026-05-07 02:01 | 30.85107 | -95.99453 | 8950 ft | 123 kts | 158° |
| 2026-05-07 02:01 | 30.84382 | -95.98923 | 8947 ft | 123 kts | 158° |
| 2026-05-07 02:01 | 30.83657 | -95.98395 | 8951 ft | 123 kts | 158° |
| 2026-05-07 02:01 | 30.82939 | -95.97873 | 8950 ft | 123 kts | 158° |
| 2026-05-07 02:02 | 30.82210 | -95.97344 | 8918 ft | 124 kts | 157° |
| 2026-05-07 02:02 | 30.81478 | -95.96813 | 8906 ft | 124 kts | 156° |
| 2026-05-07 02:02 | 30.80752 | -95.96282 | 8900 ft | 123 kts | 156° |
| 2026-05-07 02:02 | 30.80028 | -95.95753 | 8909 ft | 123 kts | 156° |
| 2026-05-07 02:03 | 30.79304 | -95.95226 | 8905 ft | 123 kts | 156° |
| 2026-05-07 02:03 | 30.78582 | -95.94699 | 8906 ft | 122 kts | 156° |
| 2026-05-07 02:03 | 30.77871 | -95.94181 | 8906 ft | 122 kts | 156° |
| 2026-05-07 02:03 | 30.77150 | -95.93657 | 8912 ft | 122 kts | 156° |
| 2026-05-07 02:04 | 30.76430 | -95.93133 | 8923 ft | 122 kts | 156° |
| 2026-05-07 02:04 | 30.75709 | -95.92609 | 8918 ft | 123 kts | 156° |
| 2026-05-07 02:04 | 30.74984 | -95.92082 | 8922 ft | 123 kts | 156° |
| 2026-05-07 02:04 | 30.74257 | -95.91555 | 8918 ft | 123 kts | 156° |
| 2026-05-07 02:05 | 30.73530 | -95.91026 | 8915 ft | 123 kts | 156° |
| 2026-05-07 02:05 | 30.72801 | -95.90496 | 8912 ft | 123 kts | 156° |
| 2026-05-07 02:05 | 30.72075 | -95.89969 | 8916 ft | 123 kts | 156° |
| 2026-05-07 02:05 | 30.71363 | -95.89450 | 8915 ft | 122 kts | 156° |
| 2026-05-07 02:06 | 30.70644 | -95.88927 | 8916 ft | 122 kts | 156° |
| 2026-05-07 02:06 | 30.69926 | -95.88403 | 8919 ft | 122 kts | 157° |
| 2026-05-07 02:06 | 30.69205 | -95.87881 | 8919 ft | 122 kts | 157° |
| 2026-05-07 02:06 | 30.68482 | -95.87358 | 8915 ft | 123 kts | 157° |
| 2026-05-07 02:07 | 30.67758 | -95.86835 | 8923 ft | 123 kts | 156° |
| 2026-05-07 02:07 | 30.66311 | -95.85783 | 8921 ft | 123 kts | 156° |
| 2026-05-07 02:07 | 30.65599 | -95.85266 | 8914 ft | 122 kts | 156° |
| 2026-05-07 02:08 | 30.64878 | -95.84742 | 8918 ft | 122 kts | 157° |
| 2026-05-07 02:08 | 30.64161 | -95.84221 | 8921 ft | 122 kts | 156° |
| 2026-05-07 02:08 | 30.63441 | -95.83700 | 8922 ft | 122 kts | 156° |
| 2026-05-07 02:08 | 30.62721 | -95.83179 | 8921 ft | 122 kts | 156° |
| 2026-05-07 02:09 | 30.62001 | -95.82657 | 8917 ft | 122 kts | 156° |
| 2026-05-07 02:09 | 30.61281 | -95.82136 | 8922 ft | 122 kts | 157° |
| 2026-05-07 02:09 | 30.60561 | -95.81614 | 8873 ft | 122 kts | 157° |
| 2026-05-07 02:09 | 30.59855 | -95.81101 | 8873 ft | 121 kts | 157° |
| 2026-05-07 02:10 | 30.59140 | -95.80583 | 8884 ft | 121 kts | 157° |
| 2026-05-07 02:10 | 30.58425 | -95.80066 | 8884 ft | 121 kts | 157° |
| 2026-05-07 02:10 | 30.57711 | -95.79548 | 8882 ft | 121 kts | 156° |
| 2026-05-07 02:10 | 30.56993 | -95.79030 | 8888 ft | 122 kts | 156° |
| 2026-05-07 02:11 | 30.56272 | -95.78509 | 8907 ft | 122 kts | 156° |
| 2026-05-07 02:11 | 30.55552 | -95.77988 | 8913 ft | 122 kts | 156° |
| 2026-05-07 02:11 | 30.54830 | -95.77466 | 8910 ft | 122 kts | 156° |
| 2026-05-07 02:11 | 30.54111 | -95.76944 | 8905 ft | 122 kts | 157° |
| 2026-05-07 02:12 | 30.53400 | -95.76430 | 8907 ft | 122 kts | 157° |
| 2026-05-07 02:12 | 30.52683 | -95.75910 | 8911 ft | 122 kts | 157° |
| 2026-05-07 02:12 | 30.51964 | -95.75390 | 8914 ft | 122 kts | 157° |
| 2026-05-07 02:12 | 30.51244 | -95.74870 | 8908 ft | 122 kts | 157° |
| 2026-05-07 02:13 | 30.50523 | -95.74350 | 8914 ft | 122 kts | 157° |
| 2026-05-07 02:13 | 30.49800 | -95.73828 | 8898 ft | 122 kts | 157° |
| 2026-05-07 02:13 | 30.49078 | -95.73307 | 8893 ft | 122 kts | 157° |
| 2026-05-07 02:13 | 30.48359 | -95.72786 | 8893 ft | 122 kts | 157° |
| 2026-05-07 02:14 | 30.47649 | -95.72272 | 8898 ft | 122 kts | 157° |
| 2026-05-07 02:14 | 30.46928 | -95.71751 | 8899 ft | 122 kts | 157° |
| 2026-05-07 02:14 | 30.46203 | -95.71229 | 8893 ft | 123 kts | 157° |
| 2026-05-07 02:14 | 30.45482 | -95.70710 | 8892 ft | 121 kts | 157° |
| 2026-05-07 02:15 | 30.44773 | -95.70194 | 8892 ft | 120 kts | 156° |
| 2026-05-07 02:15 | 30.44070 | -95.69685 | 8891 ft | 119 kts | 157° |
| 2026-05-07 02:15 | 30.43371 | -95.69180 | 8897 ft | 118 kts | 157° |
| 2026-05-07 02:15 | 30.42671 | -95.68674 | 8902 ft | 119 kts | 157° |
| 2026-05-07 02:16 | 30.41975 | -95.68175 | 8904 ft | 120 kts | 157° |
| 2026-05-07 02:16 | 30.41267 | -95.67667 | 8903 ft | 120 kts | 157° |
| 2026-05-07 02:16 | 30.40556 | -95.67156 | 8898 ft | 120 kts | 157° |
| 2026-05-07 02:16 | 30.39845 | -95.66644 | 8894 ft | 120 kts | 157° |
| 2026-05-07 02:17 | 30.39135 | -95.66131 | 8895 ft | 120 kts | 157° |
| 2026-05-07 02:17 | 30.38424 | -95.65619 | 8877 ft | 120 kts | 157° |
| 2026-05-07 02:17 | 30.37712 | -95.65106 | 8876 ft | 121 kts | 157° |
| 2026-05-07 02:17 | 30.37000 | -95.64594 | 8877 ft | 121 kts | 157° |
| 2026-05-07 02:18 | 30.36296 | -95.64087 | 8876 ft | 121 kts | 156° |
| 2026-05-07 02:18 | 30.35584 | -95.63573 | 8874 ft | 121 kts | 157° |
| 2026-05-07 02:18 | 30.34870 | -95.63059 | 8918 ft | 121 kts | 156° |
| 2026-05-07 02:18 | 30.34156 | -95.62544 | 8923 ft | 121 kts | 156° |
| 2026-05-07 02:19 | 30.33441 | -95.62030 | 8961 ft | 121 kts | 157° |
| 2026-05-07 02:19 | 30.32724 | -95.61514 | 8966 ft | 121 kts | 156° |
| 2026-05-07 02:19 | 30.32007 | -95.60997 | 8963 ft | 121 kts | 157° |
| 2026-05-07 02:19 | 30.31293 | -95.60483 | 8961 ft | 121 kts | 157° |
| 2026-05-07 02:20 | 30.30589 | -95.59975 | 8969 ft | 121 kts | 157° |
| 2026-05-07 02:20 | 30.29874 | -95.59461 | 8971 ft | 121 kts | 157° |
| 2026-05-07 02:20 | 30.29154 | -95.58946 | 8967 ft | 122 kts | 157° |
| 2026-05-07 02:20 | 30.28435 | -95.58430 | 8964 ft | 122 kts | 156° |
| 2026-05-07 02:21 | 30.27718 | -95.57913 | 8956 ft | 121 kts | 157° |
| 2026-05-07 02:21 | 30.27004 | -95.57398 | 8965 ft | 121 kts | 157° |
| 2026-05-07 02:21 | 30.26291 | -95.56886 | 8966 ft | 121 kts | 157° |
| 2026-05-07 02:21 | 30.25578 | -95.56373 | 8965 ft | 121 kts | 157° |
| 2026-05-07 02:22 | 30.24876 | -95.55870 | 8962 ft | 120 kts | 157° |
| 2026-05-07 02:22 | 30.24167 | -95.55361 | 8963 ft | 120 kts | 157° |
| 2026-05-07 02:22 | 30.23459 | -95.54852 | 8964 ft | 120 kts | 157° |
| 2026-05-07 02:22 | 30.22752 | -95.54344 | 8958 ft | 120 kts | 157° |
| 2026-05-07 02:23 | 30.22044 | -95.53836 | 8962 ft | 120 kts | 157° |
| 2026-05-07 02:23 | 30.21336 | -95.53329 | 8964 ft | 120 kts | 157° |
| 2026-05-07 02:23 | 30.20628 | -95.52822 | 8964 ft | 120 kts | 157° |
| 2026-05-07 02:23 | 30.19920 | -95.52315 | 8964 ft | 120 kts | 157° |
| 2026-05-07 02:24 | 30.19221 | -95.51814 | 8964 ft | 120 kts | 157° |
| 2026-05-07 02:24 | 30.18516 | -95.51307 | 8967 ft | 119 kts | 157° |
| 2026-05-07 02:24 | 30.17808 | -95.50800 | 8971 ft | 120 kts | 157° |
| 2026-05-07 02:24 | 30.17100 | -95.50293 | 8973 ft | 120 kts | 157° |
| 2026-05-07 02:25 | 30.16390 | -95.49784 | 8974 ft | 120 kts | 157° |
| 2026-05-07 02:25 | 30.15679 | -95.49275 | 8972 ft | 120 kts | 157° |
| 2026-05-07 02:25 | 30.14972 | -95.48766 | 8972 ft | 120 kts | 157° |
| 2026-05-07 02:25 | 30.14264 | -95.48260 | 8975 ft | 120 kts | 157° |
| 2026-05-07 02:26 | 30.13556 | -95.47752 | 8974 ft | 120 kts | 157° |
| 2026-05-07 02:26 | 30.12858 | -95.47252 | 8977 ft | 120 kts | 157° |
| 2026-05-07 02:26 | 30.12148 | -95.46743 | 8977 ft | 120 kts | 157° |
| 2026-05-07 02:26 | 30.11437 | -95.46235 | 8977 ft | 120 kts | 157° |
| 2026-05-07 02:27 | 30.10725 | -95.45726 | 8976 ft | 120 kts | 157° |
| 2026-05-07 02:27 | 30.10013 | -95.45216 | 8975 ft | 120 kts | 157° |
| 2026-05-07 02:27 | 30.09301 | -95.44706 | 8974 ft | 120 kts | 157° |
| 2026-05-07 02:27 | 30.08593 | -95.44198 | 8974 ft | 120 kts | 158° |
| 2026-05-07 02:28 | 30.07895 | -95.43699 | 8974 ft | 120 kts | 157° |
| 2026-05-07 02:28 | 30.07187 | -95.43193 | 8975 ft | 120 kts | 157° |
| 2026-05-07 02:28 | 30.06480 | -95.42688 | 8975 ft | 120 kts | 157° |
| 2026-05-07 02:28 | 30.05770 | -95.42182 | 8955 ft | 120 kts | 157° |
| 2026-05-07 02:29 | 30.05063 | -95.41675 | 8956 ft | 120 kts | 157° |
| 2026-05-07 02:29 | 30.04358 | -95.41169 | 8956 ft | 119 kts | 158° |
| 2026-05-07 02:29 | 30.03653 | -95.40665 | 8957 ft | 119 kts | 157° |
| 2026-05-07 02:29 | 30.02949 | -95.40162 | 8960 ft | 119 kts | 157° |
| 2026-05-07 02:30 | 30.02242 | -95.39658 | 8959 ft | 120 kts | 157° |
| 2026-05-07 02:30 | 30.01543 | -95.39159 | 8959 ft | 120 kts | 157° |
| 2026-05-07 02:30 | 30.00833 | -95.38653 | 8958 ft | 120 kts | 157° |
| 2026-05-07 02:30 | 30.00121 | -95.38143 | 8949 ft | 120 kts | 158° |
| 2026-05-07 02:31 | 29.99408 | -95.37634 | 8958 ft | 121 kts | 159° |
| 2026-05-07 02:31 | 29.98693 | -95.37124 | 8959 ft | 121 kts | 158° |
| 2026-05-07 02:31 | 29.97975 | -95.36613 | 8959 ft | 121 kts | 158° |
| 2026-05-07 02:31 | 29.97258 | -95.36102 | 8958 ft | 121 kts | 158° |
| 2026-05-07 02:32 | 29.96541 | -95.35590 | 8958 ft | 121 kts | 158° |
| 2026-05-07 02:32 | 29.95821 | -95.35077 | 8957 ft | 122 kts | 158° |
| 2026-05-07 02:32 | 29.95111 | -95.34569 | 8959 ft | 122 kts | 158° |
| 2026-05-07 02:32 | 29.94389 | -95.34055 | 8959 ft | 122 kts | 158° |
| 2026-05-07 02:33 | 29.93667 | -95.33540 | 8958 ft | 122 kts | 158° |
| 2026-05-07 02:33 | 29.92947 | -95.33024 | 8958 ft | 122 kts | 158° |
| 2026-05-07 02:33 | 29.92226 | -95.32512 | 8956 ft | 122 kts | 158° |
| 2026-05-07 02:33 | 29.91508 | -95.31999 | 8956 ft | 121 kts | 158° |
| 2026-05-07 02:34 | 29.90791 | -95.31489 | 8957 ft | 121 kts | 158° |
| 2026-05-07 02:34 | 29.90315 | -95.31150 | 8958 ft | 122 kts | 158° |
| 2026-05-07 02:34 | 29.89362 | -95.30470 | 8959 ft | 122 kts | 158° |
| 2026-05-07 02:34 | 29.88642 | -95.29959 | 8958 ft | 122 kts | 158° |
| 2026-05-07 02:35 | 29.87922 | -95.29447 | 8955 ft | 122 kts | 158° |
| 2026-05-07 02:35 | 29.87204 | -95.28934 | 8954 ft | 121 kts | 158° |
| 2026-05-07 02:35 | 29.86488 | -95.28425 | 8954 ft | 121 kts | 158° |
| 2026-05-07 02:35 | 29.85772 | -95.27915 | 8954 ft | 121 kts | 158° |
| 2026-05-07 02:36 | 29.85297 | -95.27577 | 8955 ft | 121 kts | 158° |
| 2026-05-07 02:36 | 29.84579 | -95.27067 | 8956 ft | 122 kts | 158° |
| 2026-05-07 02:36 | 29.83624 | -95.26388 | 8954 ft | 122 kts | 158° |
| 2026-05-07 02:36 | 29.82903 | -95.25876 | 8953 ft | 122 kts | 158° |
| 2026-05-07 02:37 | 29.82183 | -95.25364 | 8940 ft | 122 kts | 158° |
| 2026-05-07 02:37 | 29.81463 | -95.24852 | 8941 ft | 122 kts | 158° |
| 2026-05-07 02:37 | 29.80987 | -95.24513 | 8940 ft | 122 kts | 158° |
| 2026-05-07 02:37 | 29.80267 | -95.24002 | 8940 ft | 122 kts | 158° |
| 2026-05-07 02:38 | 29.79547 | -95.23490 | 8940 ft | 122 kts | 158° |
| 2026-05-07 02:38 | 29.78826 | -95.22979 | 8939 ft | 122 kts | 158° |
| 2026-05-07 02:38 | 29.77875 | -95.22303 | 8954 ft | 121 kts | 158° |
| 2026-05-07 02:38 | 29.77163 | -95.21795 | 8970 ft | 120 kts | 158° |
| 2026-05-07 02:39 | 29.76682 | -95.21455 | 8972 ft | 120 kts | 158° |
| 2026-05-07 02:39 | 29.75980 | -95.20957 | 8979 ft | 120 kts | 158° |
| 2026-05-07 02:39 | 29.75267 | -95.20452 | 8978 ft | 120 kts | 158° |
| 2026-05-07 02:39 | 29.74554 | -95.19947 | 8979 ft | 120 kts | 158° |
| 2026-05-07 02:40 | 29.73842 | -95.19442 | 8981 ft | 120 kts | 158° |
| 2026-05-07 02:40 | 29.73127 | -95.18935 | 8983 ft | 121 kts | 158° |
| 2026-05-07 02:40 | 29.72410 | -95.18427 | 8975 ft | 121 kts | 159° |
| 2026-05-07 02:40 | 29.71696 | -95.17938 | 8977 ft | 118 kts | 163° |
| 2026-05-07 02:41 | 29.70960 | -95.17536 | 8981 ft | 117 kts | 165° |
| 2026-05-07 02:41 | 29.70234 | -95.17142 | 8983 ft | 117 kts | 165° |
| 2026-05-07 02:41 | 29.69497 | -95.16735 | 8983 ft | 117 kts | 164° |
| 2026-05-07 02:41 | 29.68767 | -95.16328 | 8922 ft | 118 kts | 165° |
| 2026-05-07 02:42 | 29.68026 | -95.15916 | 8846 ft | 118 kts | 164° |
| 2026-05-07 02:42 | 29.67292 | -95.15504 | 8785 ft | 118 kts | 163° |
| 2026-05-07 02:42 | 29.66557 | -95.15094 | 8711 ft | 117 kts | 163° |
| 2026-05-07 02:42 | 29.65823 | -95.14683 | 8599 ft | 117 kts | 163° |
| 2026-05-07 02:43 | 29.65095 | -95.14276 | 8474 ft | 117 kts | 163° |
| 2026-05-07 02:43 | 29.64372 | -95.13873 | 8335 ft | 117 kts | 163° |
| 2026-05-07 02:43 | 29.63645 | -95.13466 | 8218 ft | 116 kts | 162° |
| 2026-05-07 02:43 | 29.62915 | -95.13059 | 8090 ft | 117 kts | 162° |
| 2026-05-07 02:44 | 29.62189 | -95.12653 | 7979 ft | 116 kts | 162° |
| 2026-05-07 02:44 | 29.61464 | -95.12247 | 7863 ft | 116 kts | 162° |
| 2026-05-07 02:44 | 29.60742 | -95.11846 | 7759 ft | 115 kts | 161° |
| 2026-05-07 02:44 | 29.60021 | -95.11443 | 7643 ft | 116 kts | 161° |
| 2026-05-07 02:45 | 29.59299 | -95.11040 | 7536 ft | 115 kts | 161° |
| 2026-05-07 02:45 | 29.58591 | -95.10644 | 7431 ft | 115 kts | 160° |
| 2026-05-07 02:45 | 29.57877 | -95.10246 | 7340 ft | 114 kts | 160° |
| 2026-05-07 02:45 | 29.57162 | -95.09847 | 7225 ft | 115 kts | 160° |
| 2026-05-07 02:46 | 29.56451 | -95.09451 | 7135 ft | 113 kts | 160° |
| 2026-05-07 02:46 | 29.55741 | -95.09054 | 7036 ft | 113 kts | 159° |
| 2026-05-07 02:46 | 29.55033 | -95.08660 | 6949 ft | 113 kts | 159° |
| 2026-05-07 02:46 | 29.54325 | -95.08265 | 6856 ft | 113 kts | 159° |
| 2026-05-07 02:47 | 29.53619 | -95.07872 | 6771 ft | 112 kts | 159° |
| 2026-05-07 02:47 | 29.52918 | -95.07481 | 6713 ft | 112 kts | 159° |
| 2026-05-07 02:47 | 29.52225 | -95.07095 | 6619 ft | 112 kts | 158° |
| 2026-05-07 02:47 | 29.51523 | -95.06704 | 6542 ft | 112 kts | 158° |
| 2026-05-07 02:48 | 29.50824 | -95.06315 | 6456 ft | 112 kts | 158° |
| 2026-05-07 02:48 | 29.50121 | -95.05923 | 6375 ft | 112 kts | 158° |
| 2026-05-07 02:48 | 29.49426 | -95.05535 | 6307 ft | 111 kts | 158° |
| 2026-05-07 02:48 | 29.48728 | -95.05146 | 6234 ft | 111 kts | 158° |
| 2026-05-07 02:49 | 29.48034 | -95.04759 | 6124 ft | 112 kts | 158° |
| 2026-05-07 02:49 | 29.47330 | -95.04368 | 6054 ft | 111 kts | 158° |
| 2026-05-07 02:49 | 29.46635 | -95.03979 | 5979 ft | 111 kts | 158° |
| 2026-05-07 02:49 | 29.45945 | -95.03596 | 5896 ft | 111 kts | 158° |
| 2026-05-07 02:50 | 29.45254 | -95.03214 | 5833 ft | 111 kts | 159° |
| 2026-05-07 02:50 | 29.44544 | -95.02836 | 5750 ft | 112 kts | 159° |
| 2026-05-07 02:50 | 29.43853 | -95.02444 | 5688 ft | 111 kts | 155° |
| 2026-05-07 02:50 | 29.43158 | -95.02025 | 5577 ft | 114 kts | 152° |
| 2026-05-07 02:51 | 29.42547 | -95.01470 | 5503 ft | 111 kts | 141° |
| 2026-05-07 02:51 | 29.41956 | -95.00877 | 5287 ft | 115 kts | 142° |
| 2026-05-07 02:51 | 29.41360 | -95.00308 | 5160 ft | 111 kts | 143° |
| 2026-05-07 02:51 | 29.40751 | -94.99732 | 4934 ft | 116 kts | 143° |
| 2026-05-07 02:52 | 29.40143 | -94.99148 | 4786 ft | 113 kts | 142° |
| 2026-05-07 02:52 | 29.39539 | -94.98558 | 4579 ft | 115 kts | 142° |
| 2026-05-07 02:52 | 29.38925 | -94.97967 | 4387 ft | 116 kts | 142° |
| 2026-05-07 02:52 | 29.38314 | -94.97358 | 4184 ft | 117 kts | 142° |
| 2026-05-07 02:53 | 29.37699 | -94.96737 | 3986 ft | 118 kts | 140° |
| 2026-05-07 02:53 | 29.37077 | -94.96135 | 3810 ft | 117 kts | 145° |
| 2026-05-07 02:53 | 29.36433 | -94.95591 | 3636 ft | 117 kts | 146° |
| 2026-05-07 02:53 | 29.35779 | -94.95040 | 3468 ft | 116 kts | 147° |
| 2026-05-07 02:54 | 29.35171 | -94.94441 | 3299 ft | 116 kts | 142° |
| 2026-05-07 02:54 | 29.34574 | -94.93823 | 3127 ft | 115 kts | 141° |
| 2026-05-07 02:54 | 29.33982 | -94.93199 | 2916 ft | 116 kts | 142° |
| 2026-05-07 02:54 | 29.33364 | -94.92603 | 2689 ft | 114 kts | 146° |
| 2026-05-07 02:55 | 29.32739 | -94.92055 | 2450 ft | 112 kts | 146° |
| 2026-05-07 02:55 | 29.32150 | -94.91510 | 2201 ft | 105 kts | 146° |
| 2026-05-07 02:55 | 29.31602 | -94.90992 | 1961 ft | 100 kts | 144° |
| 2026-05-07 02:55 | 29.31082 | -94.90480 | 1698 ft | 99 kts | 144° |
| 2026-05-07 02:56 | 29.30591 | -94.89980 | 1431 ft | 90 kts | 144° |
| 2026-05-07 02:56 | 29.30121 | -94.89523 | 1163 ft | 88 kts | 146° |
| 2026-05-07 02:56 | 29.29646 | -94.89108 | 963 ft | 83 kts | 148° |
| 2026-05-07 02:56 | 29.29192 | -94.88711 | 801 ft | 81 kts | 143° |
| 2026-05-07 02:57 | 29.28765 | -94.88336 | 643 ft | 72 kts | 142° |
| 2026-05-07 02:57 | 29.28407 | -94.87958 | 453 ft | 69 kts | 140° |
| 2026-05-07 02:57 | 29.28046 | -94.87601 | 280 ft | 68 kts | 140° |
| 2026-05-07 02:57 | 29.27692 | -94.87257 | 183 ft | 66 kts | 141° |
| 2026-05-07 02:58 | 29.27336 | -94.86920 | 91 ft | 66 kts | 142° |
| 2026-05-07 02:58 | 29.27010 | -94.86614 | 14 ft | 50 kts | 141° |
| 2026-05-07 02:58 | 29.26795 | -94.86406 | 10 ft | 37 kts | 141° |
| 2026-05-07 02:58 | 29.26598 | -94.86220 | 6 ft | 37 kts | 138° |
| 2026-05-07 02:59 | 29.26411 | -94.86041 | 6 ft | 33 kts | 141° |
| 2026-05-07 02:59 | 29.26349 | -94.85924 | 7 ft | 13 kts | 30° |
| 2026-05-07 02:59 | 29.26373 | -94.85833 | 10 ft | 14 kts | 91° |
| 2026-05-07 02:59 | 29.26423 | -94.85767 | 10 ft | 14 kts | 17° |
| 2026-05-07 03:00 | 29.26530 | -94.85751 | 10 ft | 12 kts | 0° |
| 2026-05-07 03:00 | 29.26611 | -94.85756 | 10 ft | 13 kts | 4° |
| 2026-05-07 03:00 | 29.26632 | -94.85740 | 11 ft | 0 kts | 111° |